createdAt,value
2018-12-08T00:00:48.932Z,88.35
2018-12-08T00:03:18.276Z,88.05
2018-12-08T00:05:47.531Z,88.08
2018-12-08T00:08:17.027Z,87.43
2018-12-08T00:10:46.235Z,87.57
2018-12-08T00:13:16.083Z,87.24
2018-12-08T00:15:45.448Z,87.22
2018-12-08T00:18:14.655Z,86.60
2018-12-08T00:20:44.658Z,86.43
2018-12-08T00:23:14.533Z,86.57
2018-12-08T00:25:44.136Z,86.59
2018-12-08T00:28:13.515Z,86.50
2018-12-08T00:30:53.422Z,86.31
2018-12-08T00:33:22.964Z,86.07
2018-12-08T00:35:52.707Z,85.69
2018-12-08T00:38:22.488Z,86.29
2018-12-08T00:40:51.841Z,85.78
2018-12-08T00:43:20.983Z,86.07
2018-12-08T00:45:50.064Z,85.97
2018-12-08T00:48:19.317Z,86.04
2018-12-08T00:50:48.648Z,86.27
2018-12-08T00:53:18.044Z,86.16
2018-12-08T00:55:47.435Z,86.33
2018-12-08T00:58:16.807Z,86.24
2018-12-08T01:00:46.671Z,86.17
2018-12-08T01:03:16.179Z,86.39
2018-12-08T01:05:45.903Z,86.19
2018-12-08T01:08:15.555Z,85.92
2018-12-08T01:10:45.181Z,86.10
2018-12-08T01:13:14.575Z,86.15
2018-12-08T01:15:44.097Z,86.01
2018-12-08T01:18:14.538Z,85.86
2018-12-08T01:20:43.727Z,86.25
2018-12-08T01:23:13.117Z,86.21
2018-12-08T01:25:42.976Z,86.14
2018-12-08T01:28:12.357Z,86.27
2018-12-08T01:30:41.959Z,86.44
2018-12-08T01:33:11.652Z,85.95
2018-12-08T01:35:40.949Z,86.50
2018-12-08T01:38:10.115Z,86.29
2018-12-08T01:40:39.546Z,86.17
2018-12-08T01:43:09.213Z,86.27
2018-12-08T01:45:38.682Z,85.93
2018-12-08T01:48:07.810Z,86.01
2018-12-08T01:50:37.079Z,85.97
2018-12-08T01:53:06.545Z,86.20
2018-12-08T01:55:35.939Z,86.05
2018-12-08T01:58:05.427Z,85.98
2018-12-08T02:00:35.185Z,86.13
2018-12-08T02:03:05.380Z,85.92
2018-12-08T02:05:34.718Z,85.99
2018-12-08T02:08:04.097Z,85.67
2018-12-08T02:10:33.476Z,85.85
2018-12-08T02:13:02.601Z,85.57
2018-12-08T02:15:31.831Z,85.60
2018-12-08T02:18:01.153Z,85.53
2018-12-08T02:20:30.191Z,85.18
2018-12-08T02:22:59.493Z,85.36
2018-12-08T02:25:28.811Z,85.59
2018-12-08T02:27:58.237Z,85.19
2018-12-08T02:30:27.360Z,85.51
2018-12-08T02:32:56.802Z,85.74
2018-12-08T02:35:26.006Z,85.65
2018-12-08T02:37:55.313Z,85.67
2018-12-08T02:40:24.977Z,85.31
2018-12-08T02:42:54.334Z,85.27
2018-12-08T02:45:24.708Z,85.10
2018-12-08T02:47:53.724Z,85.10
2018-12-08T02:50:23.555Z,85.12
2018-12-08T02:52:52.992Z,84.48
2018-12-08T02:55:22.594Z,84.78
2018-12-08T02:57:51.709Z,84.85
2018-12-08T03:00:21.033Z,84.61
2018-12-08T03:02:50.517Z,84.38
2018-12-08T03:05:19.951Z,84.57
2018-12-08T03:07:49.368Z,84.43
2018-12-08T03:10:18.774Z,84.39
2018-12-08T03:12:48.186Z,84.62
2018-12-08T03:15:17.778Z,84.67
2018-12-08T03:17:48.507Z,84.47
2018-12-08T03:20:17.977Z,84.45
2018-12-08T03:22:47.340Z,84.13
2018-12-08T03:25:16.475Z,84.16
2018-12-08T03:27:46.086Z,83.85
2018-12-08T03:30:15.758Z,83.77
2018-12-08T03:32:44.945Z,83.83
2018-12-08T03:35:14.621Z,83.89
2018-12-08T03:37:44.213Z,83.96
2018-12-08T03:40:13.602Z,83.71
2018-12-08T03:42:43.262Z,83.72
2018-12-08T03:45:12.953Z,83.64
2018-12-08T03:47:42.535Z,83.85
2018-12-08T03:50:11.896Z,83.38
2018-12-08T03:52:41.030Z,83.83
2018-12-08T03:55:10.387Z,83.83
2018-12-08T03:57:39.519Z,83.87
2018-12-08T04:00:09.125Z,83.84
2018-12-08T04:02:38.481Z,83.58
2018-12-08T04:05:07.959Z,84.12
2018-12-08T04:07:37.507Z,84.43
2018-12-08T04:10:06.969Z,84.67
2018-12-08T04:12:36.243Z,84.50
2018-12-08T04:15:06.376Z,84.64
2018-12-08T04:17:35.685Z,84.62
2018-12-08T04:20:05.453Z,84.80
2018-12-08T04:22:34.771Z,85.15
2018-12-08T04:25:04.360Z,85.20
2018-12-08T04:27:33.757Z,85.03
2018-12-08T04:30:02.961Z,85.43
2018-12-08T04:32:32.343Z,85.22
2018-12-08T04:35:01.453Z,85.40
2018-12-08T04:37:30.720Z,85.43
2018-12-08T04:40:00.008Z,85.51
2018-12-08T04:42:29.234Z,85.62
2018-12-08T04:44:58.502Z,85.48
2018-12-08T04:47:27.983Z,85.37
2018-12-08T04:49:57.311Z,85.66
2018-12-08T04:52:26.503Z,85.72
2018-12-08T04:54:55.781Z,85.73
2018-12-08T04:57:25.160Z,85.72
2018-12-08T04:59:54.546Z,85.86
2018-12-08T05:02:24.811Z,85.79
2018-12-08T05:04:54.135Z,85.67
2018-12-08T05:07:23.513Z,85.56
2018-12-08T05:09:52.806Z,85.56
2018-12-08T05:12:22.053Z,85.23
2018-12-08T05:14:51.310Z,85.30
2018-12-08T05:17:20.760Z,85.15
2018-12-08T05:19:50.232Z,85.13
2018-12-08T05:22:19.503Z,85.00
2018-12-08T05:24:48.924Z,85.11
2018-12-08T05:27:18.123Z,85.15
2018-12-08T05:29:47.404Z,85.16
2018-12-08T05:32:16.599Z,85.00
2018-12-08T05:34:46.079Z,84.86
2018-12-08T05:37:15.705Z,85.25
2018-12-08T05:39:45.063Z,84.98
2018-12-08T05:42:14.495Z,85.12
2018-12-08T05:44:44.178Z,85.19
2018-12-08T05:47:13.515Z,85.01
2018-12-08T05:49:42.959Z,85.05
2018-12-08T05:52:11.928Z,85.15
2018-12-08T05:54:41.125Z,85.02
2018-12-08T05:57:10.444Z,85.21
2018-12-08T05:59:39.689Z,84.95
2018-12-08T06:02:09.004Z,84.68
2018-12-08T06:04:38.359Z,84.53
2018-12-08T06:07:07.429Z,84.97
2018-12-08T06:09:36.741Z,84.59
2018-12-08T06:12:06.139Z,84.45
2018-12-08T06:14:35.385Z,84.48
2018-12-08T06:17:04.743Z,84.43
2018-12-08T06:19:33.999Z,84.34
2018-12-08T06:22:03.505Z,84.43
2018-12-08T06:24:32.887Z,84.31
2018-12-08T06:27:10.737Z,84.12
2018-12-08T06:29:40.398Z,84.09
2018-12-08T06:32:09.558Z,83.59
2018-12-08T06:34:38.843Z,83.77
2018-12-08T06:37:08.620Z,83.78
2018-12-08T06:39:37.989Z,83.62
2018-12-08T06:42:07.253Z,83.55
2018-12-08T06:44:36.619Z,83.39
2018-12-08T06:47:06.041Z,83.69
2018-12-08T06:49:35.175Z,83.27
2018-12-08T06:52:04.321Z,82.93
2018-12-08T06:54:33.535Z,83.00
2018-12-08T06:57:02.828Z,82.79
2018-12-08T06:59:31.938Z,82.88
2018-12-08T07:02:01.305Z,83.00
2018-12-08T07:04:30.691Z,83.40
2018-12-08T07:06:59.937Z,82.85
2018-12-08T07:09:29.160Z,82.92
2018-12-08T07:11:58.209Z,82.80
2018-12-08T07:14:27.455Z,83.05
2018-12-08T07:16:56.804Z,82.70
2018-12-08T07:19:25.952Z,82.30
2018-12-08T07:21:55.134Z,82.69
2018-12-08T07:24:24.393Z,82.47
2018-12-08T07:26:53.662Z,82.30
2018-12-08T07:29:23.486Z,82.31
2018-12-08T07:31:52.960Z,82.24
2018-12-08T07:34:22.200Z,82.17
2018-12-08T07:36:51.499Z,82.39
2018-12-08T07:39:21.500Z,82.37
2018-12-08T07:41:51.149Z,82.48
2018-12-08T07:44:20.242Z,82.27
2018-12-08T07:46:49.614Z,82.54
2018-12-08T07:49:18.978Z,82.13
2018-12-08T07:51:48.068Z,82.28
2018-12-08T07:54:17.290Z,81.61
2018-12-08T07:56:46.591Z,82.02
2018-12-08T07:59:16.131Z,81.93
2018-12-08T08:01:45.728Z,82.03
2018-12-08T08:04:15.083Z,81.81
2018-12-08T08:06:44.550Z,81.63
2018-12-08T08:09:14.305Z,82.20
2018-12-08T08:11:43.600Z,82.08
2018-12-08T08:14:13.346Z,82.01
2018-12-08T08:16:42.564Z,82.30
2018-12-08T08:19:11.861Z,81.97
2018-12-08T08:21:41.129Z,82.11
2018-12-08T08:24:10.494Z,82.27
2018-12-08T08:26:39.649Z,82.16
2018-12-08T08:29:08.840Z,82.23
2018-12-08T08:31:38.156Z,82.48
2018-12-08T08:34:07.453Z,82.38
2018-12-08T08:36:36.733Z,82.38
2018-12-08T08:39:09.040Z,82.39
2018-12-08T08:41:38.655Z,82.49
2018-12-08T08:44:08.025Z,82.30
2018-12-08T08:46:37.197Z,82.39
2018-12-08T08:49:06.338Z,82.34
2018-12-08T08:51:35.521Z,83.02
2018-12-08T08:54:04.796Z,82.37
2018-12-08T08:56:34.075Z,82.67
2018-12-08T08:59:03.389Z,81.91
2018-12-08T09:01:32.691Z,82.45
2018-12-08T09:04:02.068Z,82.19
2018-12-08T09:06:31.368Z,82.61
2018-12-08T09:09:00.413Z,82.12
2018-12-08T09:11:29.281Z,82.00
2018-12-08T09:13:58.326Z,82.04
2018-12-08T09:16:27.804Z,82.25
2018-12-08T09:18:57.434Z,82.30
2018-12-08T09:21:26.717Z,82.09
2018-12-08T09:23:55.825Z,81.80
2018-12-08T09:26:25.709Z,81.99
2018-12-08T09:28:54.607Z,82.10
2018-12-08T09:31:24.485Z,81.86
2018-12-08T09:33:53.516Z,82.15
2018-12-08T09:36:22.411Z,82.26
2018-12-08T09:38:51.212Z,81.96
2018-12-08T09:41:20.858Z,82.17
2018-12-08T09:43:50.037Z,81.86
2018-12-08T09:46:19.068Z,82.09
2018-12-08T09:48:48.198Z,82.01
2018-12-08T09:51:17.209Z,81.66
2018-12-08T09:53:46.165Z,81.99
2018-12-08T09:56:15.515Z,81.71
2018-12-08T09:58:44.797Z,81.79
2018-12-08T10:01:13.934Z,82.08
2018-12-08T10:03:43.035Z,81.89
2018-12-08T10:06:11.846Z,81.79
2018-12-08T10:08:40.787Z,82.09
2018-12-08T10:11:09.713Z,81.98
2018-12-08T10:13:39.027Z,82.11
2018-12-08T10:16:08.046Z,82.22
2018-12-08T10:18:37.192Z,82.45
2018-12-08T10:21:06.552Z,82.72
2018-12-08T10:23:35.845Z,82.57
2018-12-08T10:26:05.198Z,82.69
2018-12-08T10:28:34.536Z,82.63
2018-12-08T10:31:03.810Z,82.92
2018-12-08T10:33:32.982Z,83.23
2018-12-08T10:36:01.921Z,83.27
2018-12-08T10:38:30.914Z,83.56
2018-12-08T10:41:00.157Z,83.36
2018-12-08T10:43:29.250Z,83.62
2018-12-08T10:45:58.938Z,83.63
2018-12-08T10:48:28.347Z,83.68
2018-12-08T10:50:57.565Z,83.89
2018-12-08T10:53:26.412Z,83.71
2018-12-08T10:55:55.543Z,83.67
2018-12-08T10:58:24.890Z,83.66
2018-12-08T11:00:59.621Z,83.87
2018-12-08T11:03:31.056Z,83.85
2018-12-08T11:06:00.374Z,83.85
2018-12-08T11:08:29.334Z,84.13
2018-12-08T11:10:58.810Z,83.95
2018-12-08T11:13:28.311Z,83.96
2018-12-08T11:15:57.583Z,83.91
2018-12-08T11:18:26.824Z,83.99
2018-12-08T11:20:56.253Z,84.01
2018-12-08T11:23:25.600Z,84.18
2018-12-08T11:25:55.175Z,83.89
2018-12-08T11:28:24.453Z,83.65
2018-12-08T11:30:53.643Z,83.77
2018-12-08T11:33:23.062Z,84.00
2018-12-08T11:35:53.324Z,83.67
2018-12-08T11:38:23.656Z,84.14
2018-12-08T11:40:52.771Z,84.14
2018-12-08T11:43:23.550Z,84.19
2018-12-08T11:45:53.035Z,84.08
2018-12-08T11:48:22.280Z,84.23
2018-12-08T11:50:51.539Z,84.13
2018-12-08T11:53:20.834Z,84.04
2018-12-08T11:55:50.166Z,84.17
2018-12-08T11:58:19.282Z,84.08
2018-12-08T12:00:48.748Z,83.87
2018-12-08T12:03:17.894Z,84.02
2018-12-08T12:05:47.406Z,84.00
2018-12-08T12:08:16.762Z,83.96
2018-12-08T12:10:46.377Z,83.87
2018-12-08T12:13:15.869Z,84.05
2018-12-08T12:15:45.228Z,83.95
2018-12-08T12:18:14.622Z,84.10
2018-12-08T12:20:43.882Z,84.12
2018-12-08T12:23:13.412Z,84.21
2018-12-08T12:25:42.855Z,84.13
2018-12-08T12:28:11.981Z,84.13
2018-12-08T12:30:41.153Z,84.07
2018-12-08T12:33:10.510Z,84.40
2018-12-08T12:35:39.882Z,84.40
2018-12-08T12:38:08.969Z,84.44
2018-12-08T12:40:38.324Z,84.36
2018-12-08T12:43:07.828Z,84.43
2018-12-08T12:45:43.638Z,84.45
2018-12-08T12:48:12.935Z,84.73
2018-12-08T12:50:42.345Z,84.24
2018-12-08T12:53:11.897Z,84.67
2018-12-08T12:55:41.267Z,84.67
2018-12-08T12:58:10.842Z,84.81
2018-12-08T13:00:40.192Z,84.75
2018-12-08T13:03:09.375Z,84.97
2018-12-08T13:05:38.769Z,84.69
2018-12-08T13:08:07.899Z,84.98
2018-12-08T13:10:37.225Z,84.98
2018-12-08T13:13:06.405Z,85.04
2018-12-08T13:15:35.735Z,85.06
2018-12-08T13:18:05.385Z,85.03
2018-12-08T13:20:34.704Z,84.92
2018-12-08T13:23:04.086Z,85.27
2018-12-08T13:25:33.351Z,85.28
2018-12-08T13:28:02.728Z,85.23
2018-12-08T13:30:32.063Z,85.36
2018-12-08T13:33:01.391Z,85.00
2018-12-08T13:35:55.807Z,85.05
2018-12-08T13:38:25.070Z,85.04
2018-12-08T13:40:54.597Z,85.19
2018-12-08T13:43:24.547Z,85.45
2018-12-08T13:45:53.833Z,85.31
2018-12-08T13:48:25.329Z,85.44
2018-12-08T13:50:55.095Z,85.50
2018-12-08T13:53:24.391Z,85.05
2018-12-08T13:55:53.614Z,85.29
2018-12-08T13:58:23.856Z,85.22
2018-12-08T14:00:53.424Z,85.55
2018-12-08T14:03:23.166Z,85.33
2018-12-08T14:05:52.948Z,85.49
2018-12-08T14:08:22.386Z,85.64
2018-12-08T14:10:51.683Z,85.89
2018-12-08T14:13:20.970Z,85.95
2018-12-08T14:15:50.663Z,86.14
2018-12-08T14:18:20.023Z,86.38
2018-12-08T14:20:49.476Z,86.25
2018-12-08T14:23:18.933Z,86.24
2018-12-08T14:25:48.290Z,86.46
2018-12-08T14:28:18.196Z,86.63
2018-12-08T14:30:47.619Z,86.65
2018-12-08T14:33:16.931Z,86.89
2018-12-08T14:35:46.818Z,86.73
2018-12-08T14:38:16.528Z,87.05
2018-12-08T14:40:46.601Z,85.93
2018-12-08T14:43:16.281Z,85.65
2018-12-08T14:45:46.309Z,85.42
2018-12-08T14:48:16.506Z,85.64
2018-12-08T14:50:46.024Z,85.19
2018-12-08T14:53:15.927Z,85.30
2018-12-08T14:55:45.580Z,85.15
2018-12-08T14:58:15.110Z,85.36
2018-12-08T15:00:44.693Z,85.31
2018-12-08T15:03:14.497Z,85.65
2018-12-08T15:05:43.767Z,85.55
2018-12-08T15:08:13.455Z,85.69
2018-12-08T15:10:43.174Z,85.82
2018-12-08T15:13:12.524Z,85.89
2018-12-08T15:15:41.973Z,85.96
2018-12-08T15:18:11.432Z,86.09
2018-12-08T15:20:40.707Z,86.07
2018-12-08T15:23:10.177Z,85.88
2018-12-08T15:25:39.412Z,86.14
2018-12-08T15:28:08.556Z,86.12
2018-12-08T15:30:37.917Z,86.37
2018-12-08T15:33:07.364Z,86.08
2018-12-08T15:35:36.924Z,86.08
2018-12-08T15:38:06.402Z,86.06
2018-12-08T15:40:35.913Z,86.14
2018-12-08T15:43:05.182Z,85.98
2018-12-08T15:45:34.608Z,85.96
2018-12-08T15:48:04.083Z,86.05
2018-12-08T15:50:33.715Z,86.03
2018-12-08T15:53:03.696Z,85.93
2018-12-08T15:55:33.347Z,85.89
2018-12-08T15:58:03.197Z,85.44
2018-12-08T16:00:32.508Z,85.74
2018-12-08T16:03:01.679Z,85.60
2018-12-08T16:05:31.340Z,85.35
2018-12-08T16:08:00.769Z,85.55
2018-12-08T16:10:30.104Z,85.48
2018-12-08T16:12:59.270Z,85.12
2018-12-08T16:15:28.545Z,85.26
2018-12-08T16:17:57.931Z,85.42
2018-12-08T16:20:27.429Z,85.66
2018-12-08T16:22:57.003Z,85.21
2018-12-08T16:25:26.508Z,85.17
2018-12-08T16:27:55.708Z,85.13
2018-12-08T16:30:25.083Z,85.22
2018-12-08T16:32:54.626Z,84.97
2018-12-08T16:35:24.205Z,85.08
2018-12-08T16:37:56.987Z,85.10
2018-12-08T16:40:24.727Z,84.96
2018-12-08T16:42:54.260Z,84.92
2018-12-08T16:45:23.627Z,84.96
2018-12-08T16:47:53.209Z,84.82
2018-12-08T16:50:22.442Z,84.84
2018-12-08T16:52:51.847Z,84.89
2018-12-08T16:55:21.144Z,84.84
2018-12-08T16:57:50.737Z,84.79
2018-12-08T17:00:20.005Z,84.78
2018-12-08T17:02:49.355Z,84.79
2018-12-08T17:05:18.909Z,84.75
2018-12-08T17:07:48.420Z,84.94
2018-12-08T17:10:17.973Z,84.91
2018-12-08T17:12:47.442Z,85.27
2018-12-08T17:15:16.858Z,85.12
2018-12-08T17:17:46.639Z,85.26
2018-12-08T17:20:16.759Z,85.24
2018-12-08T17:22:46.073Z,85.66
2018-12-08T17:25:15.733Z,85.53
2018-12-08T17:27:45.789Z,85.75
2018-12-08T17:30:15.421Z,85.92
2018-12-08T17:32:45.074Z,85.70
2018-12-08T17:35:14.832Z,86.11
2018-12-08T17:37:44.400Z,85.93
2018-12-08T17:40:14.002Z,85.87
2018-12-08T17:42:44.941Z,85.64
2018-12-08T17:45:14.181Z,85.63
2018-12-08T17:47:43.564Z,85.74
2018-12-08T17:50:13.246Z,85.72
2018-12-08T17:52:43.324Z,85.75
2018-12-08T17:55:12.941Z,85.44
2018-12-08T17:57:42.377Z,85.44
2018-12-08T18:00:12.386Z,85.38
2018-12-08T18:02:42.428Z,85.49
2018-12-08T18:05:12.395Z,85.28
2018-12-08T18:07:42.459Z,85.28
2018-12-08T18:10:11.894Z,85.56
2018-12-08T18:12:41.203Z,85.56
2018-12-08T18:15:10.678Z,85.65
2018-12-08T18:17:40.306Z,85.69
2018-12-08T18:20:09.973Z,85.75
2018-12-08T18:22:39.777Z,85.80
2018-12-08T18:25:09.287Z,85.93
2018-12-08T18:27:38.823Z,86.16
2018-12-08T18:30:08.777Z,86.02
2018-12-08T18:32:38.254Z,86.37
2018-12-08T18:35:07.751Z,86.52
2018-12-08T18:37:37.137Z,86.36
2018-12-08T18:40:07.544Z,86.30
2018-12-08T18:42:36.979Z,86.77
2018-12-08T18:45:07.189Z,86.78
2018-12-08T18:47:37.084Z,86.71
2018-12-08T18:50:08.761Z,86.42
2018-12-08T18:52:38.268Z,86.32
2018-12-08T18:55:07.545Z,86.25
2018-12-08T18:57:37.021Z,86.30
2018-12-08T19:00:08.822Z,86.76
2018-12-08T19:02:38.434Z,86.55
2018-12-08T19:05:08.654Z,86.45
2018-12-08T19:07:38.169Z,86.26
2018-12-08T19:10:07.857Z,86.17
2018-12-08T19:12:37.393Z,86.50
2018-12-08T19:15:08.261Z,86.65
2018-12-08T19:17:38.020Z,86.34
2018-12-08T19:20:08.176Z,86.66
2018-12-08T19:22:37.847Z,86.76
2018-12-08T19:25:08.395Z,86.69
2018-12-08T19:27:38.162Z,86.60
2018-12-08T19:30:09.790Z,86.61
2018-12-08T19:32:40.307Z,86.62
2018-12-08T19:35:09.359Z,86.59
2018-12-08T19:37:38.868Z,86.31
2018-12-08T19:40:10.126Z,86.47
2018-12-08T19:42:39.636Z,86.49
2018-12-08T19:45:09.402Z,86.73
2018-12-08T19:47:38.658Z,86.61
2018-12-08T19:50:07.861Z,86.22
2018-12-08T19:52:37.174Z,86.17
2018-12-08T19:55:06.648Z,86.30
2018-12-08T19:57:35.874Z,86.18
2018-12-08T20:00:06.266Z,86.26
2018-12-08T20:02:35.631Z,86.08
2018-12-08T20:05:05.356Z,86.21
2018-12-08T20:07:34.743Z,86.22
2018-12-08T20:10:04.738Z,85.96
2018-12-08T20:12:34.270Z,85.97
2018-12-08T20:15:03.338Z,86.20
2018-12-08T20:17:32.685Z,86.44
2018-12-08T20:20:01.759Z,86.52
2018-12-08T20:22:31.490Z,86.20
2018-12-08T20:25:00.978Z,86.38
2018-12-08T20:27:30.432Z,86.57
2018-12-08T20:29:59.795Z,86.32
2018-12-08T20:32:29.141Z,86.33
2018-12-08T20:34:58.321Z,86.29
2018-12-08T20:37:27.628Z,86.56
2018-12-08T20:39:57.423Z,86.47
2018-12-08T20:42:26.950Z,86.69
2018-12-08T20:44:56.266Z,86.69
2018-12-08T20:47:25.503Z,86.92
2018-12-08T20:49:54.906Z,86.69
2018-12-08T20:52:30.846Z,86.91
2018-12-08T20:55:00.523Z,86.76
2018-12-08T20:57:29.796Z,86.76
2018-12-08T20:59:59.161Z,86.91
2018-12-08T21:02:28.648Z,86.92
2018-12-08T21:04:57.986Z,87.10
2018-12-08T21:07:27.306Z,87.21
2018-12-08T21:09:56.648Z,87.08
2018-12-08T21:12:25.811Z,87.19
2018-12-08T21:14:55.128Z,87.15
2018-12-08T21:17:24.335Z,87.52
2018-12-08T21:19:53.446Z,87.25
2018-12-08T21:22:23.254Z,87.10
2018-12-08T21:24:52.631Z,87.25
2018-12-08T21:27:22.467Z,86.76
2018-12-08T21:29:51.714Z,87.51
2018-12-08T21:32:21.067Z,87.32
2018-12-08T21:34:50.265Z,87.40
2018-12-08T21:37:19.729Z,87.26
2018-12-08T21:39:48.998Z,87.62
2018-12-08T21:42:18.375Z,87.36
2018-12-08T21:44:47.699Z,87.54
2018-12-08T21:47:16.946Z,87.19
2018-12-08T21:49:46.733Z,87.29
2018-12-08T21:52:16.176Z,87.36
2018-12-08T21:54:45.922Z,87.23
2018-12-08T21:57:15.759Z,87.25
2018-12-08T21:59:45.238Z,87.48
2018-12-08T22:02:14.620Z,87.36
2018-12-08T22:04:44.421Z,87.59
2018-12-08T22:07:13.818Z,87.47
2018-12-08T22:09:43.318Z,87.71
2018-12-08T22:12:12.822Z,87.53
2018-12-08T22:14:47.100Z,87.94
2018-12-08T22:17:16.421Z,87.64
2018-12-08T22:19:46.372Z,87.45
2018-12-08T22:22:15.932Z,87.22
2018-12-08T22:24:45.438Z,87.43
2018-12-08T22:27:15.004Z,87.32
2018-12-08T22:29:44.506Z,87.21
2018-12-08T22:32:13.990Z,87.22
2018-12-08T22:34:43.467Z,87.24
2018-12-08T22:37:12.934Z,87.37
2018-12-08T22:39:42.462Z,87.17
2018-12-08T22:42:11.880Z,87.43
2018-12-08T22:44:41.434Z,87.51
2018-12-08T22:47:10.704Z,87.24
2018-12-08T22:49:39.985Z,87.18
2018-12-08T22:52:09.352Z,87.29
2018-12-08T22:54:38.665Z,87.56
2018-12-08T22:57:07.866Z,87.65
2018-12-08T22:59:37.552Z,87.97
2018-12-08T23:02:07.137Z,87.94
2018-12-08T23:04:36.477Z,87.99
2018-12-08T23:07:07.177Z,87.96
2018-12-08T23:09:37.442Z,87.85
2018-12-08T23:12:07.620Z,87.20
2018-12-08T23:14:37.146Z,87.89
2018-12-08T23:17:06.223Z,87.99
2018-12-08T23:19:35.568Z,88.11
2018-12-08T23:22:04.923Z,87.85
2018-12-08T23:24:34.058Z,87.84
2018-12-08T23:27:03.515Z,87.95
2018-12-08T23:29:32.715Z,87.72
2018-12-08T23:32:02.076Z,87.78
2018-12-08T23:34:31.479Z,87.77
2018-12-08T23:37:00.900Z,88.06
2018-12-08T23:39:30.289Z,87.88
2018-12-08T23:41:59.541Z,87.92
2018-12-08T23:44:28.996Z,88.09
2018-12-08T23:46:58.818Z,87.49
2018-12-08T23:49:28.118Z,87.70
2018-12-08T23:51:57.581Z,87.66
2018-12-08T23:54:26.810Z,87.48
2018-12-08T23:56:56.028Z,87.39
2018-12-08T23:59:25.172Z,87.24
